Luka, Czech Republic

6:35 AM CET on November 26, 2014 (GMT +0100)
Vilemov | Change Station
CLOSE
Current Station
Personal Weather Station
Location: Vilemov, MORAVA
Elevation: 1253 ft
Nearby Weather Stations

Elev 1253 ft 49.64 °N, 17.00 °E | Updated 5 minutes ago

Overcast
Overcast
32.0 °F
Feels Like 29 °F
N
3.1
Wind Variable Wind from South
Gusts 4.5 mph

Today
High -- | Low -- °F
--% Chance of Precip.
Yesterday
High -- | Low -- °F
Precip. -- in
7:20 AM 3:58 PM
Waxing Crescent, 16% visible
Pressure 30.24 in
Visibility -9999.0 miles
Clouds Overcast 1700 ft
Windchill 29 °F
Dew Point 32 °F
Humidity 99%
Rainfall 0.00 in
Snow Depth Not available.
UV 0 out of 12
Pollen Not available.
Air Quality Not available.
Flu Activity Not available.
METAR LKTB 260530Z 07006KT 3300 BR OVC017 01/01 Q1024 NOSIG

More Conditions Fewer Conditions

Pressure 30.24 in
Visibility -9999.0 miles
Clouds Overcast 1700 ft
Windchill 29 °F
Dew Point 32 °F
Humidity 99%
Rainfall 0.00 in
Snow Depth Not available.
UV 0 out of 12
Pollen Not available.
Air Quality Not available.
Flu Activity Not available.
METAR LKTB 260530Z 07006KT 3300 BR OVC017 01/01 Q1024 NOSIG

More Conditions Fewer Conditions

10-Day Weather Forecast

Almanac

Astronomy

Nov. 26, 2014 Rise Set
Actual Time
Civil Twilight
Nautical Twilight
Astronomical Twilight
Moon
Length of Visible Light
Length of Day
Tomorrow will be .
, % of the Moon is Illuminated

Today's Extremes

Country Highs Country Lows

Community

WunderPhotos

Upload Photos

1,773,683 photos uploaded!

WunderBlogs® & News

Nearby

Air Quality

  Air Quality AQ Index Pollutant
Not available.

Snow Depth

Station Depth Elevation

Earthquake Activity

City Distance Mag. Time & Date
Minimum magnitude displayed is 2.5.

Coastal Water Temperatures

Place Temperature

Nearby Weather Stations